Old Kilpatrick, United Kingdom
Current Conditions -  °F | °C
As of 1:50 AM on Tuesday 21 Oct 2014 (Local Time) from EGPF Reporting Station
Heavy Rain Heavy Rain  
Wind Chill: 55°   Ceiling: 2100
Heat Index: 55°   Visibility: 2.6mi
Dew Point: 52°   Wind: 18mph
Humidity: 88%   Direction: 180°S
Pressure: 29.21"   Gusts: NA
Location:  55.92°N, 4.46°W
Report Text: EGPF 210050Z AUTO 18016KT 4200 +RA FEW013/// BKN021/// OVC035/// //////CB 13/11 Q0989
Loading
Personal Weather Stations






























Interactive Weather Map
Tropical Storm Tracking
New forecast layout! Learn more

10-Day Weather Forecast

Advertisements
Track Severe Weather on mobile